Time;durP1;ratioP1;P1;durP2;ratioP2;P2;SDS_P1;SDS_P2;PMS_P1;PMS_P2;Temp;Humidity;BMP_temperature;BMP_pressure;BME280_temperature;BME280_humidity;BME280_pressure;Samples;Min_cycle;Max_cycle;Signal;HPM_P1;HPM_P2
2020/12/30 09:09:38;;;;;;;4.45;4.15;;;;;;;28.89;54.42;100590.41;5124823;27;42726;-57
2020/12/30 09:12:10;;;;;;;5.53;4.00;;;;;;;28.97;53.83;100594.72;5036585;27;70414;-57
2020/12/30 09:14:41;;;;;;;4.43;4.22;;;;;;;28.89;52.30;100598.53;5036598;27;65811;-59
2020/12/30 09:17:14;;;;;;;4.10;3.90;;;;;;;28.79;52.68;100602.72;5069970;27;70512;-60
2020/12/30 09:19:44;;;;;;;4.30;4.05;;;;;;;28.88;53.41;100606.81;5032252;27;64738;-61
2020/12/30 09:22:15;;;;;;;4.30;4.05;;;;;;;28.93;53.86;100609.72;5016099;27;70303;-60
2020/12/30 09:24:46;;;;;;;4.82;4.53;;;;;;;28.85;53.08;100594.56;5032219;27;66292;-60
2020/12/30 09:27:23;;;;;;;4.63;4.35;;;;;;;28.91;51.99;100612.63;5015770;27;69839;-61
2020/12/30 09:30:14;;;;;;;4.65;4.43;;;;;;;28.82;50.92;100607.69;5008106;28;66450;-62
2020/12/30 09:32:48;;;;;;;4.70;4.40;;;;;;;28.82;50.81;100613.09;4992245;28;69585;-58
2020/12/30 09:35:25;;;;;;;4.25;4.05;;;;;;;28.71;50.51;100601.88;4959622;28;65701;-59
2020/12/30 09:37:58;;;;;;;4.88;4.57;;;;;;;28.74;50.37;100616.84;5008634;28;69578;-58
2020/12/30 09:40:29;;;;;;;5.50;5.20;;;;;;;28.75;50.65;100623.88;4992322;28;66482;-58
2020/12/30 09:43:15;;;;;;;7.63;5.65;;;;;;;28.64;49.97;100627.22;4965845;28;69756;-58
2020/12/30 09:45:48;;;;;;;6.72;6.18;;;;;;;28.62;51.56;100610.44;4980419;28;66215;-58
2020/12/30 09:48:20;;;;;;;;;;;;;;;28.69;52.42;100619.34;4982617;28;69825;-57
2020/12/30 09:50:52;;;;;;;8.70;7.03;;;;;;;28.84;52.16;100617.22;4984912;28;66750;-57
2020/12/30 09:53:23;;;;;;;10.15;6.75;;;;;;;28.78;51.27;100620.78;4972818;28;69813;-59
2020/12/30 09:55:54;;;;;;;6.97;6.38;;;;;;;28.72;50.67;100624.31;4989342;28;66379;-55
2020/12/30 09:58:25;;;;;;;7.50;6.88;;;;;;;28.59;51.19;100635.16;4989205;28;69887;-56
2020/12/30 10:00:57;;;;;;;10.70;7.00;;;;;;;28.47;52.38;100643.91;5004705;28;66831;-53
2020/12/30 10:03:28;;;;;;;7.83;7.13;;;;;;;28.47;53.06;100649.28;5005092;28;70209;-53
2020/12/30 10:05:58;;;;;;;9.77;7.78;;;;;;;28.60;53.72;100653.00;4989477;28;65895;-53
2020/12/30 10:08:29;;;;;;;7.68;7.07;;;;;;;28.69;53.45;100649.84;5025194;28;70329;-60
2020/12/30 10:11:00;;;;;;;11.98;7.05;;;;;;;28.78;52.75;100655.88;5045792;28;66279;-63
2020/12/30 10:13:31;;;;;;;7.10;6.40;;;;;;;28.67;50.62;100654.66;5011932;28;70225;-58
2020/12/30 10:16:02;;;;;;;7.35;6.65;;;;;;;28.51;51.22;100647.81;4980012;28;66000;-57
2020/12/30 10:18:42;;;;;;;7.57;6.88;;;;;;;28.39;52.03;100652.16;5011148;28;69874;-57
2020/12/30 10:21:12;;;;;;;6.50;6.10;;;;;;;28.33;53.08;100652.97;5040128;28;65787;-55
2020/12/30 10:23:43;;;;;;;6.50;6.00;;;;;;;28.33;53.71;100647.59;4969991;28;70330;-60
2020/12/30 10:26:14;;;;;;;6.40;6.00;;;;;;;28.49;54.14;100663.38;5035109;28;66931;-59
2020/12/30 10:28:44;;;;;;;6.43;5.63;;;;;;;28.63;54.07;100663.38;4978231;28;70448;-62
2020/12/30 10:31:15;;;;;;;7.00;6.32;;;;;;;28.75;53.88;100653.56;4978828;28;65935;-58
2020/12/30 10:33:49;;;;;;;7.78;6.30;;;;;;;28.74;53.11;100654.63;4977317;28;70242;-59
2020/12/30 10:36:22;;;;;;;7.00;6.40;;;;;;;28.65;51.78;100666.69;4947438;28;65899;-56
2020/12/30 10:38:53;;;;;;;6.25;5.75;;;;;;;28.57;51.89;100661.50;4946649;28;70335;-53
2020/12/30 10:41:24;;;;;;;13.32;5.60;;;;;;;28.60;52.27;100669.19;4991126;28;66530;-56
2020/12/30 10:43:54;;;;;;;6.50;5.90;;;;;;;28.63;52.19;100668.75;4942256;28;69281;-54
2020/12/30 10:46:27;;;;;;;5.93;5.53;;;;;;;28.73;52.08;100669.16;4973900;28;66607;-56
2020/12/30 10:48:59;;;;;;;14.65;4.28;;;;;;;28.90;52.16;100670.38;4919583;28;69880;-55
2020/12/30 10:51:30;;;;;;;14.65;4.68;;;;;;;29.04;51.65;100671.19;4938250;28;65979;-55
2020/12/30 10:54:00;;;;;;;4.97;4.40;;;;;;;29.14;51.29;100676.97;4955272;28;70183;-55
2020/12/30 10:56:31;;;;;;;9.18;4.90;;;;;;;29.21;51.33;100676.94;4939571;28;65862;-54
2020/12/30 10:59:04;;;;;;;16.95;5.38;;;;;;;29.30;51.14;100681.06;4939476;28;70430;-55
2020/12/30 11:01:35;;;;;;;6.15;4.88;;;;;;;29.35;51.04;100686.66;4953250;28;66047;-55
2020/12/30 11:04:05;;;;;;;15.10;5.78;;;;;;;29.37;50.92;100687.28;4939078;28;70488;-55
2020/12/30 11:06:38;;;;;;;7.63;5.78;;;;;;;29.40;51.40;100683.31;4966835;28;66936;-55
2020/12/30 11:09:09;;;;;;;7.65;6.18;;;;;;;29.43;51.44;100679.34;4974242;28;70084;-54
2020/12/30 11:11:41;;;;;;;10.95;5.65;;;;;;;29.49;50.80;100679.31;4958441;28;66439;-55
2020/12/30 11:14:12;;;;;;;6.78;5.95;;;;;;;29.51;50.97;100681.81;4974276;28;70339;-55
2020/12/30 11:16:49;;;;;;;9.18;5.65;;;;;;;29.51;51.13;100671.81;4991233;28;65897;-55
2020/12/30 11:19:20;;;;;;;5.90;4.97;;;;;;;29.55;51.37;100683.84;5001749;28;70421;-55
2020/12/30 11:21:52;;;;;;;6.50;4.80;;;;;;;29.53;51.19;100674.28;4965190;28;66705;-55
2020/12/30 11:24:22;;;;;;;;;;;;;;;29.59;50.90;100678.84;4998110;28;69839;-55
2020/12/30 11:26:52;;;;;;;5.43;4.93;;;;;;;29.60;50.80;100675.09;5030586;28;66240;-55
2020/12/30 11:29:23;;;;;;;8.18;5.22;;;;;;;29.63;51.09;100685.50;4974522;28;69969;-55
2020/12/30 11:31:53;;;;;;;16.48;5.30;;;;;;;29.62;51.31;100678.41;4941363;28;66019;-55
2020/12/30 11:34:24;;;;;;;9.48;5.53;;;;;;;29.63;51.39;100669.28;4941467;28;70005;-55
2020/12/30 11:36:54;;;;;;;5.80;5.10;;;;;;;29.63;51.06;100674.69;4942691;28;66969;-55
2020/12/30 11:39:25;;;;;;;8.23;5.00;;;;;;;29.64;51.11;100672.81;4941921;28;70222;-55
2020/12/30 11:41:56;;;;;;;12.20;5.53;;;;;;;29.66;51.58;100674.25;4958220;28;66364;-55
2020/12/30 11:44:27;;;;;;;8.13;5.40;;;;;;;29.67;51.49;100678.63;4942150;28;70383;-54
2020/12/30 11:46:58;;;;;;;9.10;5.90;;;;;;;29.72;51.40;100677.97;4942331;28;66297;-55
2020/12/30 11:49:28;;;;;;;5.78;5.05;;;;;;;29.70;51.39;100675.50;4942320;28;70479;-55
2020/12/30 11:51:59;;;;;;;7.77;5.53;;;;;;;29.71;51.54;100685.25;4912088;28;65934;-55
2020/12/30 11:54:31;;;;;;;9.63;4.70;;;;;;;29.70;51.33;100686.31;4942089;28;70460;-55
2020/12/30 11:57:02;;;;;;;6.20;5.28;;;;;;;29.72;51.74;100689.59;4974467;28;66308;-55
2020/12/30 11:59:33;;;;;;;7.38;5.80;;;;;;;29.74;51.33;100681.28;4995451;28;70518;-55
2020/12/30 12:02:03;;;;;;;7.07;5.70;;;;;;;29.74;51.42;100684.00;4989816;28;64597;-55
2020/12/30 12:04:34;;;;;;;8.00;5.50;;;;;;;29.79;51.52;100694.97;4957925;28;70310;-55
2020/12/30 12:07:05;;;;;;;6.45;5.15;;;;;;;29.78;51.21;100696.88;4995540;28;66587;-55
2020/12/30 12:09:35;;;;;;;5.35;4.93;;;;;;;29.79;51.59;100697.69;5029647;28;69908;-54
2020/12/30 12:12:06;;;;;;;6.03;5.10;;;;;;;29.81;51.27;100700.97;5045753;28;65631;-55
2020/12/30 12:14:37;;;;;;;6.67;5.93;;;;;;;29.81;51.64;100707.25;4981341;28;70253;-55
2020/12/30 12:17:08;;;;;;;9.02;5.68;;;;;;;29.83;51.26;100707.84;4960765;28;66454;-55
2020/12/30 12:19:39;;;;;;;6.40;5.80;;;;;;;29.86;51.41;100697.63;4993263;28;70060;-55
2020/12/30 12:22:15;;;;;;;9.82;5.95;;;;;;;29.88;51.28;100709.06;4978370;28;66798;-55
2020/12/30 12:24:46;;;;;;;6.45;5.75;;;;;;;29.88;51.47;100709.06;4992736;28;70536;-55
2020/12/30 12:27:16;;;;;;;7.20;5.97;;;;;;;29.90;51.40;100717.81;4977754;28;66057;-55
2020/12/30 12:29:49;;;;;;;5.88;5.38;;;;;;;29.90;51.36;100726.75;4992195;28;70517;-55
2020/12/30 12:32:22;;;;;;;11.20;5.85;;;;;;;29.90;51.11;100734.03;4996027;28;65878;-55
2020/12/30 12:34:55;;;;;;;11.55;5.80;;;;;;;29.93;51.41;100733.59;4964368;28;70527;-55
2020/12/30 12:37:27;;;;;;;6.88;6.05;;;;;;;29.92;51.01;100737.31;5030142;28;66744;-55
2020/12/30 12:39:57;;;;;;;8.82;5.43;;;;;;;29.91;51.34;100749.19;5013383;28;69279;-55
2020/12/30 12:42:29;;;;;;;;;;;;;;;29.94;51.03;100760.41;5029874;28;65795;-55
2020/12/30 12:44:59;;;;;;;7.05;5.88;;;;;;;29.98;50.81;100758.13;4980140;28;70348;-55
2020/12/30 12:47:31;;;;;;;7.65;5.95;;;;;;;29.98;50.51;100756.22;5029622;28;66622;-55
2020/12/30 12:50:01;;;;;;;7.38;6.10;;;;;;;30.00;50.93;100770.34;4995839;28;69628;-55
2020/12/30 12:52:33;;;;;;;8.37;5.63;;;;;;;30.01;50.79;100776.59;5029212;28;65957;-55
2020/12/30 12:55:03;;;;;;;6.22;5.68;;;;;;;29.99;50.75;100781.41;5018837;28;70446;-55
2020/12/30 12:57:35;;;;;;;7.45;5.50;;;;;;;29.98;50.62;100779.75;5016952;28;66405;-55
2020/12/30 13:00:06;;;;;;;6.70;5.00;;;;;;;29.98;50.89;100785.97;5033142;28;69195;-55
2020/12/30 13:02:37;;;;;;;8.23;5.90;;;;;;;29.98;50.61;100791.41;5016583;28;66568;-55
2020/12/30 13:05:07;;;;;;;6.00;5.50;;;;;;;29.99;50.76;100792.22;5033204;28;70221;-55
2020/12/30 13:07:38;;;;;;;8.80;4.75;;;;;;;30.00;50.64;100791.16;5020630;27;66581;-55
2020/12/30 13:10:09;;;;;;;8.70;5.15;;;;;;;30.01;50.41;100800.94;5036319;27;69457;-55
2020/12/30 13:12:39;;;;;;;6.22;5.45;;;;;;;29.98;50.34;100794.09;5052802;27;65937;-55
2020/12/30 13:15:10;;;;;;;8.20;5.10;;;;;;;30.03;50.46;100804.25;5019709;27;70308;-55
2020/12/30 13:17:41;;;;;;;6.38;5.55;;;;;;;30.03;50.77;100805.09;5012410;28;66531;-55
2020/12/30 13:20:12;;;;;;;6.35;4.90;;;;;;;30.01;51.02;100814.47;4995615;28;69615;-55
2020/12/30 13:22:43;;;;;;;10.77;5.68;;;;;;;30.01;51.00;100819.88;4995608;28;66739;-55
2020/12/30 13:25:13;;;;;;;5.05;4.65;;;;;;;30.02;50.60;100824.25;4985241;28;69603;-54
2020/12/30 13:27:44;;;;;;;5.30;4.80;;;;;;;30.01;50.76;100823.41;4953438;28;65934;-55
2020/12/30 13:30:15;;;;;;;6.82;5.35;;;;;;;30.02;50.79;100826.94;4953490;28;70107;-55
2020/12/30 13:32:45;;;;;;;8.60;5.57;;;;;;;30.01;50.44;100834.22;4922223;28;65856;-55
2020/12/30 13:35:16;;;;;;;5.97;5.05;;;;;;;30.00;50.58;100824.44;4968983;28;69759;-55
2020/12/30 13:37:47;;;;;;;6.53;5.60;;;;;;;30.05;50.28;100829.22;4954165;28;66622;-54
2020/12/30 13:40:18;;;;;;;7.47;5.65;;;;;;;30.05;50.30;100840.03;4953181;28;69768;-55
2020/12/30 13:42:49;;;;;;;7.13;4.78;;;;;;;30.05;50.24;100838.16;4937569;28;66685;-54
2020/12/30 13:45:20;;;;;;;6.85;5.18;;;;;;;30.04;50.68;100835.69;4937174;28;69915;-55
2020/12/30 13:47:51;;;;;;;6.18;5.60;;;;;;;30.05;50.70;100843.56;4937292;28;65899;-55
2020/12/30 13:50:23;;;;;;;5.82;5.35;;;;;;;30.07;50.36;100846.06;4969227;28;69806;-55
2020/12/30 13:52:55;;;;;;;6.00;5.40;;;;;;;30.02;50.78;100840.47;4937736;28;66485;-55
2020/12/30 13:55:26;;;;;;;6.82;5.13;;;;;;;30.06;50.36;100853.34;4987800;28;69800;-55
2020/12/30 13:57:57;;;;;;;6.55;5.72;;;;;;;30.08;50.29;100850.41;5008740;28;66325;-55
2020/12/30 14:00:29;;;;;;;5.97;5.10;;;;;;;30.07;50.53;100851.47;4959644;28;69638;-56
2020/12/30 14:03:00;;;;;;;6.00;5.50;;;;;;;30.09;50.52;100862.91;4905017;28;66054;-55
2020/12/30 14:05:34;;;;;;;6.00;5.40;;;;;;;30.09;50.23;100851.25;5025019;28;70268;-55
2020/12/30 14:08:05;;;;;;;5.70;4.63;;;;;;;30.08;50.27;100861.25;4991673;28;66800;-55
2020/12/30 14:10:37;;;;;;;6.60;6.00;;;;;;;30.05;49.88;100857.09;5024575;28;70145;-55
2020/12/30 14:13:09;;;;;;;5.43;4.95;;;;;;;30.11;50.42;100866.22;4992207;28;66482;-54
2020/12/30 14:15:42;;;;;;;6.13;5.38;;;;;;;30.09;50.07;100862.06;4976779;28;69695;-55
2020/12/30 14:18:13;;;;;;;8.65;5.82;;;;;;;30.12;50.45;100862.47;5024698;28;66509;-55
2020/12/30 14:20:44;;;;;;;5.97;5.38;;;;;;;30.14;49.94;100865.78;5025086;28;70592;-55
2020/12/30 14:23:15;;;;;;;7.68;5.72;;;;;;;30.11;49.71;100860.81;5010485;28;65906;-55
2020/12/30 14:25:46;;;;;;;5.70;5.10;;;;;;;30.16;50.04;100868.28;5018515;28;70137;-55
2020/12/30 14:28:16;;;;;;;8.68;5.60;;;;;;;30.15;49.79;100870.16;5018243;28;65563;-54
2020/12/30 14:30:47;;;;;;;6.10;5.50;;;;;;;30.15;50.04;100867.47;5034310;28;69861;-55
2020/12/30 14:33:17;;;;;;;5.82;5.22;;;;;;;30.12;50.00;100867.91;5017834;28;66579;-55
2020/12/30 14:35:48;;;;;;;5.63;5.20;;;;;;;30.14;49.91;100871.19;5038533;27;70113;-55
2020/12/30 14:38:19;;;;;;;8.02;5.88;;;;;;;30.04;50.33;100854.63;5022159;27;66228;-54
2020/12/30 14:40:50;;;;;;;6.63;6.00;;;;;;;30.14;50.18;100865.78;5055041;27;70343;-55
2020/12/30 14:43:20;;;;;;;6.18;5.68;;;;;;;30.16;49.91;100868.28;5006432;27;65677;-55
2020/12/30 14:45:51;;;;;;;7.20;6.05;;;;;;;30.17;49.63;100869.94;5055726;27;69489;-54
2020/12/30 14:48:21;;;;;;;5.80;5.40;;;;;;;30.19;49.60;100865.97;5022373;27;66466;-54
2020/12/30 14:51:09;;;;;;;5.93;5.47;;;;;;;30.16;49.93;100863.69;5022103;27;70134;-55
2020/12/30 14:53:42;;;;;;;6.30;5.70;;;;;;;30.17;50.08;100865.38;5055353;27;66296;-55
2020/12/30 14:56:14;;;;;;;7.57;5.97;;;;;;;30.21;49.89;100863.06;5022150;27;70122;-55
2020/12/30 14:58:45;;;;;;;10.37;6.00;;;;;;;30.20;49.47;100854.13;5021658;27;66580;-55
2020/12/30 15:01:18;;;;;;;7.03;6.47;;;;;;;30.17;49.98;100853.69;5022005;27;69892;-55
2020/12/30 15:03:49;;;;;;;10.00;5.72;;;;;;;30.20;49.46;100850.56;5055191;27;66385;-55
2020/12/30 15:06:20;;;;;;;13.45;5.85;;;;;;;30.20;50.07;100850.56;5021715;27;70382;-55
2020/12/30 15:08:52;;;;;;;6.38;5.82;;;;;;;30.18;49.55;100850.78;5017964;28;65624;-55
2020/12/30 15:11:22;;;;;;;;;;;;;;;30.14;49.59;100841.44;5018998;28;70477;-55
2020/12/30 15:13:53;;;;;;;8.32;6.20;;;;;;;30.21;49.95;100839.53;5051268;28;66253;-55
2020/12/30 15:16:25;;;;;;;7.95;6.57;;;;;;;30.18;49.82;100839.16;5033778;28;69761;-55
2020/12/30 15:18:55;;;;;;;7.00;5.45;;;;;;;30.15;49.35;100829.59;4986277;28;65278;-55
2020/12/30 15:21:26;;;;;;;5.95;5.35;;;;;;;30.16;49.88;100830.41;5016393;28;70628;-55
2020/12/30 15:23:57;;;;;;;6.93;5.38;;;;;;;30.16;49.79;100833.94;5018533;28;65969;-55
2020/12/30 15:26:28;;;;;;;7.28;6.22;;;;;;;30.13;49.95;100828.97;5034150;28;69777;-55
2020/12/30 15:28:59;;;;;;;5.88;5.40;;;;;;;30.14;49.68;100830.63;5018214;28;66361;-54
2020/12/30 15:31:29;;;;;;;6.03;5.63;;;;;;;30.14;50.06;100819.78;5033841;28;70560;-55
2020/12/30 15:34:00;;;;;;;5.93;5.43;;;;;;;30.15;49.67;100821.47;4983557;28;66072;-55
2020/12/30 15:36:31;;;;;;;7.75;6.47;;;;;;;30.15;49.70;100816.06;5017119;28;70666;-54
2020/12/30 15:39:01;;;;;;;6.97;6.18;;;;;;;30.19;49.86;100824.56;5000744;28;66542;-54
2020/12/30 15:41:33;;;;;;;7.30;6.60;;;;;;;30.16;49.98;100815.00;4984879;28;70302;-55
2020/12/30 15:44:03;;;;;;;8.95;7.10;;;;;;;30.16;49.87;100815.00;5033830;28;66277;-54
2020/12/30 15:46:34;;;;;;;6.10;5.60;;;;;;;30.17;49.51;100821.22;4984318;28;69857;-55
2020/12/30 15:49:05;;;;;;;6.80;6.15;;;;;;;30.18;49.59;100815.63;4984867;28;66641;-55
2020/12/30 15:51:36;;;;;;;6.28;5.78;;;;;;;30.18;49.88;100818.31;4983603;28;69903;-55
2020/12/30 15:54:06;;;;;;;5.85;5.35;;;;;;;30.15;49.45;100824.19;5000851;28;66757;-55
2020/12/30 15:56:37;;;;;;;6.88;6.18;;;;;;;30.13;49.70;100820.03;4984827;28;70402;-55
2020/12/30 15:59:08;;;;;;;6.93;5.85;;;;;;;30.16;49.74;100827.69;5000615;28;65869;-55
2020/12/30 16:01:39;;;;;;;8.82;6.13;;;;;;;30.15;49.62;100835.00;5000966;28;69849;-55
2020/12/30 16:04:10;;;;;;;6.70;5.95;;;;;;;30.12;49.27;100824.59;4984206;28;66444;-55
2020/12/30 16:06:40;;;;;;;7.47;6.60;;;;;;;30.13;49.56;100831.66;4976415;28;69777;-55
2020/12/30 16:09:11;;;;;;;6.38;5.82;;;;;;;30.10;49.73;100824.00;4993346;28;66427;-55
2020/12/30 16:11:46;;;;;;;6.90;6.32;;;;;;;30.13;49.59;100834.38;4961174;28;70106;-55
2020/12/30 16:14:16;;;;;;;12.15;6.65;;;;;;;30.09;49.44;100825.03;4973723;28;65399;-54
2020/12/30 16:16:47;;;;;;;7.00;6.25;;;;;;;30.14;49.42;100835.19;4957374;28;69959;-55
2020/12/30 16:19:18;;;;;;;6.70;6.10;;;;;;;30.10;49.46;100823.16;4957838;28;66401;-55
2020/12/30 16:21:48;;;;;;;7.18;6.57;;;;;;;30.14;49.67;100827.91;4958117;28;70281;-55
2020/12/30 16:24:19;;;;;;;7.22;6.53;;;;;;;30.19;49.62;100840.78;4957414;28;66574;-55
2020/12/30 16:26:50;;;;;;;7.43;6.70;;;;;;;30.17;49.73;100832.91;4957788;28;69582;-55
2020/12/30 16:29:20;;;;;;;6.90;6.30;;;;;;;30.16;49.78;100828.53;4902742;28;65897;-55
2020/12/30 16:31:51;;;;;;;6.47;6.07;;;;;;;30.16;49.58;100836.66;4887565;28;70371;-55
2020/12/30 16:34:21;;;;;;;6.93;6.22;;;;;;;30.18;49.79;100845.38;4919135;28;65694;-55
2020/12/30 16:36:52;;;;;;;7.10;6.43;;;;;;;30.14;49.70;100833.31;4887609;28;70522;-55
2020/12/30 16:39:23;;;;;;;6.57;5.88;;;;;;;30.16;49.87;100836.66;4919379;28;66243;-55
2020/12/30 16:41:53;;;;;;;7.97;7.10;;;;;;;30.17;49.31;100845.59;4919194;28;70121;-55
2020/12/30 16:44:24;;;;;;;7.18;6.47;;;;;;;30.19;49.43;100847.03;4911806;28;66765;-55
2020/12/30 16:46:55;;;;;;;8.82;6.93;;;;;;;30.19;49.68;100838.09;4996554;28;70435;-55
2020/12/30 16:49:25;;;;;;;7.60;7.00;;;;;;;30.20;49.38;100847.84;4964582;28;65882;-55
2020/12/30 16:51:56;;;;;;;8.40;6.32;;;;;;;30.20;49.59;100842.44;4964684;28;70368;-55
2020/12/30 16:54:27;;;;;;;7.28;6.20;;;;;;;30.19;49.87;100844.31;4964716;28;65366;-54
2020/12/30 16:57:00;;;;;;;6.60;6.10;;;;;;;30.21;49.64;100844.13;4997030;28;70185;-55
2020/12/30 16:59:31;;;;;;;6.70;6.10;;;;;;;30.17;49.57;100832.91;4995837;28;66613;-55
2020/12/30 17:02:04;;;;;;;7.97;7.15;;;;;;;30.19;49.56;100844.31;4979841;28;70419;-55
2020/12/30 17:04:35;;;;;;;10.55;6.85;;;;;;;30.19;49.90;100840.78;4997335;28;66652;-55
